Bradford County (N27)
Towanda, PA
Field Elevation: 730
Lat: 41°44.40N  Long: 76°26.83W
CTAF/Unicom Freq: 123.0000
   
     For Weather-by-Phone, call (570) 265-1024
Weather Advisories
2017-11-20   18:40 Z
Altimeter 30.01" Hg
Wind 260° @ 9 KT
Gusts 19 KT
Visibility 10 SM
Ceiling SCT042 BKN210
Temperature 5° C (41° F)
Dewpoint -4° C (25° F)
Relative Humidity 52%
Density Altitude --
Condensation Altitude 5,200 feet
Wind Chill: 2° C (36° F)
Wind and Runways
Indicated Runway = 23
Headwind = 8 kt
Crosswind = 4 kt
History
 
 
 
More Info
All DigiWx sites map
NOAA Forecast
 
Airport IQ 5010
(LHV) Lock Haven
(PS81) Robert Packer Hospital
 
about DigiWx
 
FAA Disclaimer: The data displayed is for advisory purposes only and is not to be used for flight planning or operations. For official data, please call (570) 265-1024 to hear the current automated AWOS voice message.
  METAR N27 201840Z AUTO 26009G19KT 10 SM SCT042 BKN210 05/M04 A3001